createdAt,value
2023-05-19T00:01:48.288Z,11.17
2023-05-19T00:04:15.275Z,11.12
2023-05-19T00:06:42.221Z,11.03
2023-05-19T00:09:10.317Z,11.09
2023-05-19T00:11:38.533Z,11.05
2023-05-19T00:14:07.113Z,11.03
2023-05-19T00:16:34.318Z,11.03
2023-05-19T00:19:03.126Z,10.97
2023-05-19T00:21:31.439Z,10.88
2023-05-19T00:23:58.139Z,10.86
2023-05-19T00:26:24.664Z,10.88
2023-05-19T00:28:51.107Z,10.83
2023-05-19T00:31:17.512Z,10.82
2023-05-19T00:33:43.939Z,10.78
2023-05-19T00:36:10.347Z,10.76
2023-05-19T00:38:37.633Z,10.70
2023-05-19T00:41:05.591Z,10.65
2023-05-19T00:43:34.212Z,10.57
2023-05-19T00:46:00.646Z,10.59
2023-05-19T00:48:27.357Z,10.57
2023-05-19T00:50:54.864Z,10.52
2023-05-19T00:53:24.363Z,10.49
2023-05-19T00:55:50.938Z,10.48
2023-05-19T00:58:18.972Z,10.51
2023-05-19T01:00:45.676Z,10.48
2023-05-19T01:03:12.279Z,10.47
2023-05-19T01:05:42.361Z,10.43
2023-05-19T01:08:08.989Z,10.38
2023-05-19T01:10:35.350Z,10.37
2023-05-19T01:13:04.335Z,10.35
2023-05-19T01:15:37.630Z,10.25
2023-05-19T01:18:16.738Z,10.28
2023-05-19T01:20:52.547Z,10.25
2023-05-19T01:23:47.624Z,10.22
2023-05-19T01:26:42.870Z,10.19
2023-05-19T01:29:33.805Z,10.18
2023-05-19T01:32:02.974Z,10.21
2023-05-19T01:34:31.313Z,10.22
2023-05-19T01:37:00.630Z,10.19
2023-05-19T01:39:28.322Z,10.14
2023-05-19T01:41:55.033Z,10.10
2023-05-19T01:44:22.197Z,10.06
2023-05-19T01:46:49.552Z,9.97
2023-05-19T01:49:15.957Z,10.02
2023-05-19T01:51:43.341Z,10.02
2023-05-19T01:54:09.686Z,9.97
2023-05-19T01:56:55.263Z,9.91
2023-05-19T01:59:35.061Z,9.82
2023-05-19T02:02:07.869Z,9.89
2023-05-19T02:04:54.744Z,9.86
2023-05-19T02:07:32.777Z,9.84
2023-05-19T02:10:22.800Z,9.82
2023-05-19T02:12:53.913Z,9.81
2023-05-19T02:15:28.454Z,9.81
2023-05-19T02:17:55.746Z,9.81
2023-05-19T02:20:22.255Z,9.74
2023-05-19T02:22:48.968Z,9.76
2023-05-19T02:25:15.309Z,9.79
2023-05-19T02:27:42.124Z,9.82
2023-05-19T02:30:09.255Z,9.81
2023-05-19T02:32:36.417Z,9.82
2023-05-19T02:35:03.867Z,9.77
2023-05-19T02:37:30.996Z,9.74
2023-05-19T02:39:57.375Z,9.79
2023-05-19T02:42:23.855Z,9.77
2023-05-19T02:44:50.255Z,9.77
2023-05-19T02:47:16.567Z,9.74
2023-05-19T02:49:44.049Z,9.70
2023-05-19T02:52:10.564Z,9.67
2023-05-19T02:54:36.904Z,9.64
2023-05-19T02:57:03.277Z,9.66
2023-05-19T02:59:29.692Z,9.65
2023-05-19T03:01:59.143Z,9.55
2023-05-19T03:04:25.508Z,9.54
2023-05-19T03:06:51.873Z,9.52
2023-05-19T03:09:18.563Z,9.35
2023-05-19T03:11:44.871Z,9.46
2023-05-19T03:14:13.433Z,9.47
2023-05-19T03:16:43.388Z,9.44
2023-05-19T03:19:10.303Z,9.43
2023-05-19T03:21:36.703Z,9.40
2023-05-19T03:24:03.276Z,9.38
2023-05-19T03:26:29.633Z,9.31
2023-05-19T03:28:55.976Z,9.31
2023-05-19T03:31:22.427Z,9.37
2023-05-19T03:33:48.824Z,9.35
2023-05-19T03:36:15.200Z,9.37
2023-05-19T03:38:41.520Z,9.35
2023-05-19T03:41:07.868Z,9.34
2023-05-19T03:43:34.198Z,9.35
2023-05-19T03:46:00.805Z,9.32
2023-05-19T03:48:27.182Z,9.29
2023-05-19T03:50:54.219Z,9.31
2023-05-19T03:53:20.683Z,9.32
2023-05-19T03:55:48.447Z,9.27
2023-05-19T03:58:15.038Z,9.17
2023-05-19T04:00:41.902Z,9.19
2023-05-19T04:03:08.462Z,9.13
2023-05-19T04:05:34.950Z,9.17
2023-05-19T04:08:01.266Z,9.15
2023-05-19T04:10:27.621Z,9.21
2023-05-19T04:12:53.967Z,9.29
2023-05-19T04:15:20.348Z,9.31
2023-05-19T04:17:46.828Z,9.34
2023-05-19T04:20:13.547Z,9.24
2023-05-19T04:22:39.916Z,9.31
2023-05-19T04:25:07.491Z,9.40
2023-05-19T04:27:36.485Z,9.45
2023-05-19T04:30:03.925Z,9.38
2023-05-19T04:32:30.962Z,9.43
2023-05-19T04:34:58.872Z,9.33
2023-05-19T04:37:26.053Z,9.29
2023-05-19T04:39:52.727Z,9.39
2023-05-19T04:42:19.489Z,9.36
2023-05-19T04:44:46.413Z,9.34
2023-05-19T04:47:13.265Z,9.35
2023-05-19T04:49:39.657Z,9.37
2023-05-19T04:52:11.012Z,9.37
2023-05-19T04:54:38.833Z,9.48
2023-05-19T04:57:05.830Z,9.53
2023-05-19T04:59:32.357Z,9.50
2023-05-19T05:01:58.778Z,9.52
2023-05-19T05:04:25.878Z,9.48
2023-05-19T05:06:52.190Z,9.69
2023-05-19T05:09:19.804Z,9.71
2023-05-19T05:11:46.357Z,9.75
2023-05-19T05:14:12.916Z,9.79
2023-05-19T05:16:39.584Z,9.76
2023-05-19T05:19:06.198Z,9.84
2023-05-19T05:21:32.886Z,10.00
2023-05-19T05:23:59.689Z,10.09
2023-05-19T05:26:28.559Z,10.18
2023-05-19T05:28:54.883Z,10.27
2023-05-19T05:31:21.457Z,10.34
2023-05-19T05:33:47.902Z,10.44
2023-05-19T05:36:14.609Z,10.54
2023-05-19T05:38:41.043Z,10.60
2023-05-19T05:41:07.359Z,10.71
2023-05-19T05:43:33.724Z,10.76
2023-05-19T05:46:00.273Z,10.85
2023-05-19T05:48:27.081Z,10.97
2023-05-19T05:50:54.490Z,11.08
2023-05-19T05:53:21.428Z,11.12
2023-05-19T05:55:48.387Z,11.18
2023-05-19T05:58:14.957Z,11.30
2023-05-19T06:00:45.363Z,11.41
2023-05-19T06:03:11.870Z,11.51
2023-05-19T06:05:38.330Z,11.62
2023-05-19T06:08:04.848Z,11.71
2023-05-19T06:10:31.929Z,11.78
2023-05-19T06:12:58.739Z,11.84
2023-05-19T06:15:25.174Z,11.92
2023-05-19T06:17:51.583Z,12.03
2023-05-19T06:20:18.384Z,12.12
2023-05-19T06:22:44.668Z,12.17
2023-05-19T06:25:11.034Z,12.25
2023-05-19T06:27:37.361Z,12.36
2023-05-19T06:30:04.126Z,12.41
2023-05-19T06:32:30.528Z,12.52
2023-05-19T06:34:56.863Z,12.65
2023-05-19T06:37:23.749Z,12.71
2023-05-19T06:39:52.349Z,12.83
2023-05-19T06:42:22.308Z,12.87
2023-05-19T06:44:50.158Z,12.88
2023-05-19T06:47:17.435Z,12.94
2023-05-19T06:49:50.545Z,13.06
2023-05-19T06:52:17.252Z,13.15
2023-05-19T06:54:43.590Z,13.21
2023-05-19T06:57:09.940Z,13.24
2023-05-19T06:59:37.478Z,13.37
2023-05-19T07:02:04.569Z,13.45
2023-05-19T07:04:30.982Z,13.55
2023-05-19T07:06:57.382Z,13.59
2023-05-19T07:09:23.695Z,13.70
2023-05-19T07:11:50.017Z,13.77
2023-05-19T07:14:16.382Z,13.73
2023-05-19T07:16:42.841Z,13.94
2023-05-19T07:19:09.362Z,14.01
2023-05-19T07:21:35.777Z,13.94
2023-05-19T07:24:02.115Z,14.25
2023-05-19T07:26:29.165Z,14.43
2023-05-19T07:28:55.829Z,14.60
2023-05-19T07:31:22.118Z,14.86
2023-05-19T07:33:48.491Z,15.06
2023-05-19T07:36:14.845Z,15.28
2023-05-19T07:38:41.226Z,15.53
2023-05-19T07:41:07.578Z,15.73
2023-05-19T07:43:34.145Z,16.27
2023-05-19T07:46:00.804Z,17.42
2023-05-19T07:48:27.237Z,19.14
2023-05-19T07:50:53.605Z,20.69
2023-05-19T07:53:20.280Z,21.69
2023-05-19T07:55:46.620Z,22.48
2023-05-19T07:58:12.917Z,22.94
2023-05-19T08:00:39.340Z,23.40
2023-05-19T08:03:07.848Z,23.82
2023-05-19T08:05:35.849Z,24.42
2023-05-19T08:08:02.797Z,24.77
2023-05-19T08:10:29.622Z,24.84
2023-05-19T08:12:56.052Z,25.09
2023-05-19T08:15:22.411Z,25.09
2023-05-19T08:17:48.801Z,24.76
2023-05-19T08:20:15.187Z,24.53
2023-05-19T08:22:41.601Z,24.83
2023-05-19T08:25:08.308Z,25.04
2023-05-19T08:27:34.694Z,25.25
2023-05-19T08:30:01.217Z,25.41
2023-05-19T08:32:27.631Z,25.57
2023-05-19T08:34:53.995Z,25.51
2023-05-19T08:37:20.361Z,25.49
2023-05-19T08:39:46.678Z,25.67
2023-05-19T08:42:13.059Z,25.50
2023-05-19T08:44:41.206Z,25.00
2023-05-19T08:47:12.695Z,24.47
2023-05-19T08:49:46.596Z,23.69
2023-05-19T08:52:53.272Z,23.27
2023-05-19T08:55:33.857Z,22.61
2023-05-19T08:58:04.204Z,21.75
2023-05-19T09:00:31.050Z,21.24
2023-05-19T09:03:10.758Z,20.96
2023-05-19T09:05:45.511Z,20.62
2023-05-19T09:08:12.180Z,21.05
2023-05-19T09:10:38.532Z,22.28
2023-05-19T09:13:06.300Z,23.34
2023-05-19T09:15:36.678Z,23.98
2023-05-19T09:18:11.029Z,24.68
2023-05-19T09:20:42.268Z,24.87
2023-05-19T09:23:16.264Z,24.60
2023-05-19T09:26:08.938Z,23.76
2023-05-19T09:28:36.761Z,22.98
2023-05-19T09:31:05.244Z,22.32
2023-05-19T09:33:35.292Z,21.72
2023-05-19T09:36:03.090Z,21.84
2023-05-19T09:38:29.637Z,22.18
2023-05-19T09:40:57.913Z,22.25
2023-05-19T09:43:24.456Z,22.53
2023-05-19T09:45:56.177Z,22.67
2023-05-19T09:48:22.632Z,22.44
2023-05-19T09:50:51.573Z,22.48
2023-05-19T09:53:18.482Z,22.58
2023-05-19T09:55:45.450Z,22.33
2023-05-19T09:58:16.647Z,22.04
2023-05-19T10:00:43.234Z,21.80
2023-05-19T10:03:10.072Z,21.67
2023-05-19T10:05:36.586Z,21.68
2023-05-19T10:08:07.057Z,21.73
2023-05-19T10:10:33.501Z,21.73
2023-05-19T10:13:00.868Z,21.87
2023-05-19T10:15:27.202Z,22.17
2023-05-19T10:17:54.042Z,22.47
2023-05-19T10:20:20.415Z,22.89
2023-05-19T10:22:46.951Z,22.68
2023-05-19T10:25:18.431Z,22.33
2023-05-19T10:27:58.192Z,21.89
2023-05-19T10:30:31.753Z,21.56
2023-05-19T10:33:01.683Z,21.34
2023-05-19T10:35:49.792Z,21.48
2023-05-19T10:38:35.004Z,21.51
2023-05-19T10:41:28.420Z,21.61
2023-05-19T10:44:20.149Z,21.56
2023-05-19T10:46:46.643Z,21.58
2023-05-19T10:49:22.148Z,21.78
2023-05-19T10:51:48.611Z,21.96
2023-05-19T10:54:17.022Z,22.10
2023-05-19T10:56:47.410Z,22.31
2023-05-19T10:59:39.871Z,22.44
2023-05-19T11:02:08.101Z,22.51
2023-05-19T11:04:51.679Z,22.40
2023-05-19T11:07:22.226Z,22.24
2023-05-19T11:09:52.245Z,22.24
2023-05-19T11:12:24.619Z,22.34
2023-05-19T11:15:00.182Z,22.37
2023-05-19T11:17:27.376Z,22.56
2023-05-19T11:19:55.407Z,22.79
2023-05-19T11:22:28.578Z,23.09
2023-05-19T11:24:55.355Z,23.13
2023-05-19T11:27:32.622Z,22.75
2023-05-19T11:30:06.544Z,22.21
2023-05-19T11:32:34.727Z,22.18
2023-05-19T11:35:01.936Z,22.35
2023-05-19T11:37:32.444Z,22.71
2023-05-19T11:40:01.899Z,22.63
2023-05-19T11:42:28.285Z,22.71
2023-05-19T11:44:56.142Z,22.96
2023-05-19T11:47:22.633Z,23.19
2023-05-19T11:49:49.325Z,23.60
2023-05-19T11:52:15.821Z,23.87
2023-05-19T11:54:42.162Z,23.87
2023-05-19T11:57:10.714Z,23.55
2023-05-19T11:59:39.093Z,23.34
2023-05-19T12:02:19.247Z,23.34
2023-05-19T12:04:52.061Z,23.43
2023-05-19T12:07:20.153Z,23.69
2023-05-19T12:09:47.193Z,23.82
2023-05-19T12:12:16.818Z,23.99
2023-05-19T12:14:43.729Z,23.99
2023-05-19T12:17:14.868Z,23.78
2023-05-19T12:19:43.577Z,23.45
2023-05-19T12:22:10.675Z,23.20
2023-05-19T12:24:38.044Z,23.23
2023-05-19T12:27:17.721Z,23.40
2023-05-19T12:29:49.551Z,23.48
2023-05-19T12:32:15.933Z,23.72
2023-05-19T12:34:42.573Z,23.72
2023-05-19T12:37:11.045Z,23.54
2023-05-19T12:39:37.414Z,23.13
2023-05-19T12:42:11.214Z,22.88
2023-05-19T12:44:39.197Z,22.71
2023-05-19T12:47:07.076Z,22.68
2023-05-19T12:49:34.116Z,22.39
2023-05-19T12:52:06.089Z,22.10
2023-05-19T12:54:35.879Z,22.01
2023-05-19T12:57:05.983Z,22.16
2023-05-19T12:59:38.783Z,22.47
2023-05-19T13:02:06.297Z,22.73
2023-05-19T13:04:32.812Z,22.96
2023-05-19T13:06:59.149Z,22.96
2023-05-19T13:09:25.993Z,22.80
2023-05-19T13:11:53.964Z,23.00
2023-05-19T13:14:20.504Z,22.99
2023-05-19T13:16:47.288Z,23.07
2023-05-19T13:19:25.366Z,22.84
2023-05-19T13:21:52.332Z,22.49
2023-05-19T13:24:18.745Z,22.19
2023-05-19T13:26:45.341Z,21.90
2023-05-19T13:29:11.923Z,21.59
2023-05-19T13:31:38.263Z,21.38
2023-05-19T13:34:04.629Z,21.27
2023-05-19T13:36:33.166Z,21.17
2023-05-19T13:39:00.690Z,21.21
2023-05-19T13:41:29.126Z,21.29
2023-05-19T13:43:59.485Z,21.30
2023-05-19T13:46:36.566Z,21.39
2023-05-19T13:49:10.314Z,21.24
2023-05-19T13:51:37.522Z,21.20
2023-05-19T13:54:04.583Z,21.30
2023-05-19T13:56:31.573Z,21.40
2023-05-19T13:58:57.956Z,21.46
2023-05-19T14:01:24.460Z,21.50
2023-05-19T14:03:51.073Z,21.62
2023-05-19T14:06:17.648Z,21.92
2023-05-19T14:08:45.435Z,22.15
2023-05-19T14:11:19.655Z,22.25
2023-05-19T14:13:46.771Z,22.10
2023-05-19T14:16:13.129Z,21.95
2023-05-19T14:18:39.477Z,21.84
2023-05-19T14:21:06.137Z,21.77
2023-05-19T14:23:32.624Z,21.70
2023-05-19T14:25:59.000Z,22.00
2023-05-19T14:28:25.452Z,22.29
2023-05-19T14:30:52.345Z,22.55
2023-05-19T14:33:19.403Z,22.92
2023-05-19T14:35:45.727Z,23.29
2023-05-19T14:38:12.660Z,23.59
2023-05-19T14:40:41.303Z,23.55
2023-05-19T14:43:07.905Z,23.21
2023-05-19T14:45:35.198Z,22.89
2023-05-19T14:48:02.015Z,22.45
2023-05-19T14:50:29.418Z,22.18
2023-05-19T14:52:56.651Z,21.96
2023-05-19T14:55:23.000Z,21.81
2023-05-19T14:57:50.145Z,21.86
2023-05-19T15:00:17.703Z,22.05
2023-05-19T15:02:44.412Z,22.21
2023-05-19T15:05:11.625Z,22.31
2023-05-19T15:07:38.016Z,22.36
2023-05-19T15:10:05.014Z,22.29
2023-05-19T15:12:31.429Z,22.39
2023-05-19T15:14:57.996Z,22.44
2023-05-19T15:17:24.436Z,22.40
2023-05-19T15:19:50.851Z,22.11
2023-05-19T15:22:17.511Z,22.11
2023-05-19T15:24:44.117Z,21.95
2023-05-19T15:27:10.775Z,21.85
2023-05-19T15:29:37.101Z,21.73
2023-05-19T15:32:03.751Z,21.63
2023-05-19T15:34:30.104Z,21.58
2023-05-19T15:36:56.458Z,21.39
2023-05-19T15:39:22.849Z,21.36
2023-05-19T15:41:50.981Z,21.22
2023-05-19T15:44:17.704Z,21.19
2023-05-19T15:46:44.104Z,21.26
2023-05-19T15:49:12.775Z,21.24
2023-05-19T15:51:39.453Z,21.25
2023-05-19T15:54:05.783Z,21.28
2023-05-19T15:56:32.109Z,21.31
2023-05-19T15:58:58.457Z,21.28
2023-05-19T16:01:25.075Z,21.24
2023-05-19T16:03:51.679Z,21.20
2023-05-19T16:06:18.189Z,21.21
2023-05-19T16:08:44.620Z,21.24
2023-05-19T16:11:10.993Z,21.25
2023-05-19T16:13:37.313Z,21.25
2023-05-19T16:16:03.807Z,21.18
2023-05-19T16:18:30.333Z,21.09
2023-05-19T16:20:56.886Z,20.97
2023-05-19T16:23:24.686Z,20.93
2023-05-19T16:25:51.074Z,20.85
2023-05-19T16:28:17.427Z,20.77
2023-05-19T16:30:43.866Z,20.77
2023-05-19T16:33:10.331Z,20.79
2023-05-19T16:35:37.037Z,20.78
2023-05-19T16:38:04.421Z,20.76
2023-05-19T16:40:31.177Z,20.71
2023-05-19T16:42:57.636Z,20.65
2023-05-19T16:45:26.104Z,20.62
2023-05-19T16:47:52.486Z,20.56
2023-05-19T16:50:18.856Z,20.53
2023-05-19T16:52:45.389Z,20.49
2023-05-19T16:55:12.081Z,20.41
2023-05-19T16:57:38.478Z,20.52
2023-05-19T17:00:05.341Z,20.48
2023-05-19T17:02:31.849Z,20.46
2023-05-19T17:04:58.463Z,20.43
2023-05-19T17:07:24.798Z,20.37
2023-05-19T17:09:52.135Z,20.32
2023-05-19T17:12:19.425Z,20.28
2023-05-19T17:14:45.752Z,20.22
2023-05-19T17:17:12.198Z,20.23
2023-05-19T17:19:38.646Z,20.09
2023-05-19T17:22:05.021Z,20.13
2023-05-19T17:24:33.156Z,20.08
2023-05-19T17:27:00.055Z,20.03
2023-05-19T17:29:29.319Z,19.95
2023-05-19T17:31:55.727Z,19.94
2023-05-19T17:34:22.188Z,19.94
2023-05-19T17:36:49.581Z,19.91
2023-05-19T17:39:16.413Z,19.85
2023-05-19T17:41:43.092Z,19.77
2023-05-19T17:44:09.468Z,19.79
2023-05-19T17:46:36.084Z,19.73
2023-05-19T17:49:02.516Z,19.75
2023-05-19T17:51:29.250Z,19.64
2023-05-19T17:53:55.876Z,19.72
2023-05-19T17:56:23.075Z,19.60
2023-05-19T17:58:49.966Z,19.51
2023-05-19T18:01:17.333Z,19.47
2023-05-19T18:03:49.251Z,19.47
2023-05-19T18:06:19.473Z,19.44
2023-05-19T18:08:51.371Z,19.38
2023-05-19T18:11:18.226Z,19.34
2023-05-19T18:13:44.902Z,19.38
2023-05-19T18:16:12.139Z,19.34
2023-05-19T18:18:41.062Z,19.37
2023-05-19T18:21:07.507Z,19.34
2023-05-19T18:23:33.845Z,19.33
2023-05-19T18:26:00.148Z,19.31
2023-05-19T18:28:26.549Z,19.30
2023-05-19T18:31:03.873Z,19.25
2023-05-19T18:33:31.350Z,19.21
2023-05-19T18:35:58.309Z,19.15
2023-05-19T18:38:24.708Z,19.18
2023-05-19T18:40:51.141Z,19.13
2023-05-19T18:43:18.417Z,19.04
2023-05-19T18:45:47.209Z,19.02
2023-05-19T18:48:13.936Z,18.95
2023-05-19T18:50:40.893Z,18.88
2023-05-19T18:53:07.259Z,18.83
2023-05-19T18:55:33.525Z,18.78
2023-05-19T18:57:59.959Z,18.72
2023-05-19T19:00:27.921Z,18.66
2023-05-19T19:02:54.506Z,18.62
2023-05-19T19:05:21.349Z,18.56
2023-05-19T19:07:47.688Z,18.51
2023-05-19T19:10:15.074Z,18.48
2023-05-19T19:12:41.405Z,18.44
2023-05-19T19:15:07.883Z,18.40
2023-05-19T19:17:34.291Z,18.36
2023-05-19T19:20:00.754Z,18.30
2023-05-19T19:22:27.217Z,18.10
2023-05-19T19:24:53.467Z,18.21
2023-05-19T19:27:21.186Z,18.11
2023-05-19T19:29:47.526Z,18.09
2023-05-19T19:32:13.800Z,18.04
2023-05-19T19:34:40.105Z,17.97
2023-05-19T19:37:06.384Z,17.93
2023-05-19T19:39:32.751Z,17.90
2023-05-19T19:41:59.013Z,17.87
2023-05-19T19:44:25.379Z,17.82
2023-05-19T19:46:51.725Z,17.79
2023-05-19T19:49:18.052Z,17.69
2023-05-19T19:51:44.456Z,17.67
2023-05-19T19:54:10.817Z,17.64
2023-05-19T19:56:37.127Z,17.61
2023-05-19T19:59:03.446Z,17.60
2023-05-19T20:01:29.835Z,17.59
2023-05-19T20:03:57.403Z,17.42
2023-05-19T20:06:23.890Z,17.42
2023-05-19T20:08:50.417Z,17.43
2023-05-19T20:11:17.314Z,17.38
2023-05-19T20:13:43.715Z,17.35
2023-05-19T20:16:10.025Z,17.33
2023-05-19T20:18:36.380Z,17.25
2023-05-19T20:21:02.780Z,17.27
2023-05-19T20:23:29.100Z,17.22
2023-05-19T20:26:11.051Z,17.18
2023-05-19T20:28:38.693Z,17.09
2023-05-19T20:31:05.514Z,17.09
2023-05-19T20:33:32.006Z,17.00
2023-05-19T20:35:58.306Z,17.01
2023-05-19T20:38:24.638Z,16.95
2023-05-19T20:40:51.003Z,16.92
2023-05-19T20:43:17.321Z,16.88
2023-05-19T20:45:44.447Z,16.90
2023-05-19T20:48:11.276Z,16.88
2023-05-19T20:50:39.106Z,16.73
2023-05-19T20:53:07.213Z,16.81
2023-05-19T20:55:35.891Z,16.74
2023-05-19T20:58:02.345Z,16.72
2023-05-19T21:00:30.400Z,16.72
2023-05-19T21:02:57.170Z,16.68
2023-05-19T21:05:23.586Z,16.63
2023-05-19T21:07:49.969Z,16.55
2023-05-19T21:10:17.729Z,16.54
2023-05-19T21:12:44.176Z,16.49
2023-05-19T21:15:10.694Z,16.48
2023-05-19T21:17:37.084Z,16.45
2023-05-19T21:20:03.863Z,16.42
2023-05-19T21:22:31.180Z,16.35
2023-05-19T21:24:57.875Z,16.28
2023-05-19T21:27:24.239Z,16.27
2023-05-19T21:29:52.975Z,16.21
2023-05-19T21:32:22.389Z,16.14
2023-05-19T21:34:48.784Z,16.10
2023-05-19T21:37:17.106Z,16.09
2023-05-19T21:39:43.743Z,16.04
2023-05-19T21:42:10.206Z,16.00
2023-05-19T21:44:36.560Z,16.00
2023-05-19T21:47:02.944Z,15.91
2023-05-19T21:49:29.389Z,15.91
2023-05-19T21:51:55.687Z,15.85
2023-05-19T21:54:22.006Z,15.85
2023-05-19T21:56:48.382Z,15.84
2023-05-19T21:59:14.794Z,15.81
2023-05-19T22:01:42.176Z,15.79
2023-05-19T22:04:09.345Z,15.74
2023-05-19T22:06:35.890Z,15.73
2023-05-19T22:09:02.568Z,15.67
2023-05-19T22:11:28.916Z,15.62
2023-05-19T22:13:55.365Z,15.58
2023-05-19T22:16:21.933Z,15.53
2023-05-19T22:18:48.384Z,15.50
2023-05-19T22:21:14.712Z,15.49
2023-05-19T22:23:41.190Z,15.45
2023-05-19T22:26:07.744Z,15.41
2023-05-19T22:28:34.132Z,15.37
2023-05-19T22:31:00.659Z,15.32
2023-05-19T22:33:26.939Z,15.32
2023-05-19T22:35:53.537Z,15.29
2023-05-19T22:38:19.899Z,15.25
2023-05-19T22:40:46.310Z,15.23
2023-05-19T22:43:12.639Z,15.21
2023-05-19T22:45:39.076Z,15.13
2023-05-19T22:48:05.561Z,15.12
2023-05-19T22:50:31.938Z,15.11
2023-05-19T22:52:58.416Z,15.09
2023-05-19T22:55:24.940Z,15.02
2023-05-19T22:57:51.273Z,15.04
2023-05-19T23:00:20.575Z,15.01
2023-05-19T23:02:47.272Z,14.98
2023-05-19T23:05:13.652Z,14.94
2023-05-19T23:07:40.057Z,14.87
2023-05-19T23:10:07.426Z,14.83
2023-05-19T23:12:33.956Z,14.78
2023-05-19T23:15:00.330Z,14.73
2023-05-19T23:17:26.700Z,14.69
2023-05-19T23:19:53.061Z,14.65
2023-05-19T23:22:19.481Z,14.63
2023-05-19T23:24:45.939Z,14.62
2023-05-19T23:27:12.260Z,14.58
2023-05-19T23:29:38.572Z,14.52
2023-05-19T23:32:05.326Z,14.50
2023-05-19T23:34:31.736Z,14.48
2023-05-19T23:36:58.044Z,14.43
2023-05-19T23:39:25.377Z,14.39
2023-05-19T23:41:51.824Z,14.34
2023-05-19T23:44:18.493Z,14.34
2023-05-19T23:46:44.909Z,14.34
2023-05-19T23:49:11.366Z,14.31
2023-05-19T23:51:37.763Z,14.29
2023-05-19T23:54:04.075Z,14.26
2023-05-19T23:56:30.470Z,14.23
2023-05-19T23:58:56.880Z,14.21
